Time;durP1;ratioP1;P1;durP2;ratioP2;P2;SDS_P1;SDS_P2;PMS_P1;PMS_P2;Temp;Humidity;BMP_temperature;BMP_pressure;BME280_temperature;BME280_humidity;BME280_pressure;Samples;Min_cycle;Max_cycle;Signal;HPM_P1;HPM_P2
2022/11/04 00:01:45;;;;;;;17.13;14.75;;;11.60;99.90;;;;;;5088622;28;20043;-62
2022/11/04 00:04:13;;;;;;;22.60;15.48;;;11.60;99.90;;;;;;5087190;28;20040;-62
2022/11/04 00:06:39;;;;;;;20.23;15.73;;;11.70;99.90;;;;;;5087537;28;20044;-60
2022/11/04 00:09:09;;;;;;;19.25;15.05;;;11.60;99.90;;;;;;5084187;28;20040;-62
2022/11/04 00:14:19;;;;;;;20.13;14.80;;;11.60;99.90;;;;;;5050719;28;20405;-62
2022/11/04 00:28:41;;;;;;;19.65;14.68;;;11.60;99.90;;;;;;5085455;28;20117;-62
2022/11/04 00:30:33;;;;;;;15.85;12.93;;;11.60;99.90;;;;;;5089770;28;20056;-61
2022/11/04 00:35:55;;;;;;;9.77;8.45;;;11.60;99.90;;;;;;5088746;28;20198;-62
2022/11/04 00:38:22;;;;;;;12.45;7.80;;;11.60;99.90;;;;;;5072000;28;20039;-61
2022/11/04 00:40:47;;;;;;;9.65;7.63;;;11.60;99.90;;;;;;5089694;28;20052;-61
2022/11/04 00:43:13;;;;;;;9.75;6.95;;;11.50;99.90;;;;;;5089324;28;20517;-62
2022/11/04 00:45:41;;;;;;;6.82;4.90;;;11.50;99.90;;;;;;5087044;28;20389;-62
2022/11/04 00:48:07;;;;;;;4.25;3.85;;;11.50;99.90;;;;;;5086249;28;20044;-62
2022/11/04 00:50:33;;;;;;;4.13;3.38;;;11.40;99.90;;;;;;5088885;28;20109;-63
2022/11/04 00:53:00;;;;;;;3.17;2.60;;;11.40;99.90;;;;;;5087298;28;20561;-62
2022/11/04 00:55:26;;;;;;;2.78;2.08;;;11.40;99.90;;;;;;5079107;28;20058;-61
2022/11/04 00:57:52;;;;;;;2.30;1.70;;;11.30;99.90;;;;;;5087025;28;20820;-62
2022/11/04 01:00:18;;;;;;;2.40;1.35;;;11.30;99.90;;;;;;5088342;28;20501;-62
2022/11/04 01:02:45;;;;;;;2.17;1.40;;;11.30;99.90;;;;;;5070496;28;20055;-62
2022/11/04 01:05:11;;;;;;;1.45;1.20;;;11.20;99.90;;;;;;5088811;28;20086;-61
2022/11/04 01:07:37;;;;;;;1.70;1.20;;;11.20;99.90;;;;;;5084784;28;20044;-62
2022/11/04 01:10:04;;;;;;;1.38;0.90;;;11.20;99.90;;;;;;5085965;27;20061;-62
2022/11/04 01:12:29;;;;;;;2.65;0.80;;;11.10;99.90;;;;;;5088095;28;20173;-61
2022/11/04 01:14:55;;;;;;;0.70;0.60;;;11.10;99.90;;;;;;5089736;28;20918;-61
2022/11/04 01:17:21;;;;;;;1.98;0.70;;;11.00;99.90;;;;;;5073844;28;20044;-61
2022/11/04 01:19:47;;;;;;;3.35;0.90;;;11.00;99.90;;;;;;5085433;28;20075;-61
2022/11/04 01:22:12;;;;;;;1.90;0.77;;;11.00;99.90;;;;;;5054739;28;20051;-62
2022/11/04 01:24:38;;;;;;;1.80;0.60;;;11.00;99.90;;;;;;5067219;28;20068;-62
2022/11/04 01:27:04;;;;;;;3.17;0.60;;;11.00;99.90;;;;;;5089292;28;20062;-62
2022/11/04 01:29:30;;;;;;;1.92;0.60;;;11.00;99.90;;;;;;5049886;28;20044;-62
2022/11/04 01:31:55;;;;;;;1.67;0.70;;;10.90;99.90;;;;;;5062868;28;20056;-61
2022/11/04 01:34:21;;;;;;;1.42;0.60;;;10.90;99.90;;;;;;5086513;28;20044;-62
2022/11/04 01:36:47;;;;;;;2.08;0.63;;;10.90;99.90;;;;;;5088220;28;20040;-61
2022/11/04 01:39:13;;;;;;;1.92;0.70;;;10.90;99.90;;;;;;5079299;28;20129;-62
2022/11/04 01:41:39;;;;;;;3.47;0.88;;;10.90;99.90;;;;;;5086621;28;20047;-62
2022/11/04 01:44:43;;;;;;;2.55;0.70;;;10.90;99.90;;;;;;5084889;28;20047;-62
2022/11/04 01:47:23;;;;;;;2.97;0.90;;;10.80;99.90;;;;;;5071450;28;20044;-62
2022/11/04 01:50:05;;;;;;;0.73;0.68;;;10.80;99.90;;;;;;5085030;28;20051;-60
2022/11/04 01:53:05;;;;;;;4.60;0.80;;;10.80;99.90;;;;;;5068442;28;20090;-62
2022/11/04 01:55:34;;;;;;;3.42;1.50;;;10.80;99.90;;;;;;5087188;28;20039;-61
2022/11/04 01:58:05;;;;;;;3.70;0.90;;;10.80;99.90;;;;;;5089262;28;20047;-61
2022/11/04 02:00:31;;;;;;;2.38;0.73;;;10.80;99.90;;;;;;5087044;28;20405;-61
2022/11/04 02:03:22;;;;;;;3.03;0.73;;;10.80;99.90;;;;;;5088033;28;20051;-61
2022/11/04 02:05:48;;;;;;;2.03;0.70;;;10.80;99.90;;;;;;5078695;28;20055;-61
2022/11/04 02:08:15;;;;;;;1.85;0.70;;;10.80;99.90;;;;;;5071894;28;20047;-61
2022/11/04 02:11:02;;;;;;;3.75;0.70;;;10.80;99.90;;;;;;5071330;28;20063;-61
2022/11/04 02:13:31;;;;;;;1.77;0.70;;;10.80;99.90;;;;;;5086833;28;20075;-60
2022/11/04 02:16:15;;;;;;;4.50;0.90;;;10.70;99.90;;;;;;5067754;28;20044;-61
2022/11/04 02:18:55;;;;;;;4.88;0.60;;;10.80;99.90;;;;;;5085613;28;20055;-60
2022/11/04 02:21:33;;;;;;;4.95;0.80;;;10.80;99.90;;;;;;5086839;28;20044;-62
2022/11/04 02:24:08;;;;;;;2.92;0.70;;;10.80;99.90;;;;;;5066712;28;20043;-62
2022/11/04 02:26:33;;;;;;;2.55;0.70;;;10.80;99.90;;;;;;5094691;28;20044;-61
2022/11/04 02:29:08;;;;;;;7.35;1.15;;;10.80;99.90;;;;;;5076115;28;20087;-61
2022/11/04 02:31:56;;;;;;;5.43;0.70;;;10.80;99.90;;;;;;5088121;27;20043;-60
2022/11/04 02:34:31;;;;;;;4.30;0.80;;;10.80;99.90;;;;;;5072714;28;20043;-62
2022/11/04 02:37:39;;;;;;;9.85;1.40;;;10.80;99.90;;;;;;5077897;28;20139;-62
2022/11/04 02:40:30;;;;;;;6.63;0.90;;;10.80;99.90;;;;;;5093095;28;20066;-61
2022/11/04 02:43:08;;;;;;;4.60;1.00;;;10.70;99.90;;;;;;5091140;28;20048;-61
2022/11/04 02:45:41;;;;;;;5.50;0.93;;;10.70;99.90;;;;;;5088395;28;20040;-60
2022/11/04 02:48:31;;;;;;;3.05;0.68;;;10.70;99.90;;;;;;5075012;28;20051;-60
2022/11/04 02:51:13;;;;;;;7.70;0.80;;;10.70;99.90;;;;;;5079056;28;20094;-60
2022/11/04 02:53:46;;;;;;;4.93;1.00;;;10.60;99.90;;;;;;5083450;28;20463;-62
2022/11/04 02:56:13;;;;;;;;;;;10.60;99.90;;;;;;5083907;28;20044;-62
2022/11/04 02:58:43;;;;;;;11.20;1.08;;;10.60;99.90;;;;;;5088561;28;19923;-61
2022/11/04 03:01:13;;;;;;;10.55;1.10;;;10.60;99.90;;;;;;5093108;28;20069;-62
2022/11/04 03:03:45;;;;;;;8.23;1.75;;;10.50;99.90;;;;;;5093082;28;20047;-60
2022/11/04 03:06:16;;;;;;;5.93;1.15;;;10.50;99.90;;;;;;5093580;28;20181;-61
2022/11/04 03:08:46;;;;;;;6.45;0.93;;;10.50;99.90;;;;;;5091742;28;20126;-61
2022/11/04 03:11:22;;;;;;;4.93;0.95;;;10.50;99.90;;;;;;5074952;28;20124;-60
2022/11/04 03:13:51;;;;;;;5.90;0.93;;;10.50;99.90;;;;;;5092878;28;20051;-61
2022/11/04 03:16:20;;;;;;;5.80;1.00;;;10.40;99.90;;;;;;5092021;28;20075;-61
2022/11/04 03:19:10;;;;;;;7.45;1.45;;;10.40;99.90;;;;;;5092711;28;20245;-61
2022/11/04 03:21:39;;;;;;;11.02;1.30;;;10.40;99.90;;;;;;5092054;28;20047;-62
2022/11/04 03:24:05;;;;;;;6.57;1.05;;;10.50;99.90;;;;;;5074060;28;20048;-61
2022/11/04 03:26:40;;;;;;;10.10;1.00;;;10.50;99.90;;;;;;5089941;28;20058;-60
2022/11/04 03:29:50;;;;;;;7.32;1.25;;;10.50;99.90;;;;;;5072972;28;20401;-61
2022/11/04 03:32:36;;;;;;;9.27;1.63;;;10.50;99.90;;;;;;5007345;28;20061;-61
2022/11/04 03:35:02;;;;;;;4.93;1.00;;;10.50;99.90;;;;;;4999506;28;22402;-60
2022/11/04 03:37:28;;;;;;;4.18;1.00;;;10.50;99.90;;;;;;5041727;28;20052;-62
2022/11/04 03:39:55;;;;;;;10.30;1.30;;;10.50;99.90;;;;;;5071313;28;20550;-61
2022/11/04 03:42:22;;;;;;;6.93;0.88;;;10.50;99.90;;;;;;5081451;28;20490;-60
2022/11/04 03:44:56;;;;;;;5.55;0.98;;;10.50;99.90;;;;;;5091677;28;20039;-61
2022/11/04 03:47:25;;;;;;;6.60;1.17;;;10.50;99.90;;;;;;5046930;28;20032;-61
2022/11/04 03:50:04;;;;;;;5.10;1.30;;;10.50;99.90;;;;;;5076728;28;20151;-61
2022/11/04 03:52:30;;;;;;;7.70;1.15;;;10.50;99.90;;;;;;5093237;28;20084;-61
2022/11/04 03:54:56;;;;;;;5.88;1.17;;;10.50;99.90;;;;;;5088261;28;20044;-60
2022/11/04 03:57:41;;;;;;;6.90;1.13;;;10.50;99.90;;;;;;5070359;28;24929;-61
2022/11/04 04:00:12;;;;;;;6.13;1.15;;;10.50;99.90;;;;;;5073801;28;20060;-60
2022/11/04 04:02:52;;;;;;;6.15;1.10;;;10.50;99.90;;;;;;5090793;28;20783;-61
2022/11/04 04:05:23;;;;;;;4.50;1.10;;;10.50;99.90;;;;;;5089691;28;20044;-61
2022/11/04 04:08:09;;;;;;;7.22;1.83;;;10.50;99.90;;;;;;5089802;28;20074;-62
2022/11/04 04:10:44;;;;;;;7.82;1.05;;;10.60;99.90;;;;;;5091094;28;20055;-61
2022/11/04 04:13:22;;;;;;;3.30;0.80;;;10.60;99.90;;;;;;5093132;28;20040;-61
2022/11/04 04:16:05;;;;;;;3.97;1.10;;;10.50;99.90;;;;;;5090279;28;20130;-60
2022/11/04 04:18:56;;;;;;;2.53;1.10;;;10.50;99.90;;;;;;5089804;28;20044;-61
2022/11/04 04:21:28;;;;;;;2.28;1.10;;;10.50;99.90;;;;;;5090505;28;20044;-60
2022/11/04 04:29:30;;;;;;;4.20;0.90;;;10.50;99.90;;;;;;5079540;28;20465;-61
2022/11/04 04:31:57;;;;;;;3.58;0.75;;;10.40;99.90;;;;;;5090750;28;20044;-61
2022/11/04 04:34:30;;;;;;;2.55;0.63;;;10.40;99.90;;;;;;5093058;28;20043;-61
2022/11/04 04:37:06;;;;;;;5.50;0.90;;;10.40;99.90;;;;;;5090082;27;20060;-61
2022/11/04 04:45:32;;;;;;;3.20;1.08;;;10.40;99.90;;;;;;5090711;28;20154;-61
2022/11/04 04:47:57;;;;;;;4.25;1.25;;;10.30;99.90;;;;;;5075157;28;20040;-62
2022/11/04 04:50:27;;;;;;;4.18;1.17;;;10.30;99.90;;;;;;5077184;28;20367;-61
2022/11/04 04:52:55;;;;;;;3.75;1.00;;;10.30;99.90;;;;;;5090165;28;20060;-61
2022/11/04 04:55:21;;;;;;;2.97;1.10;;;10.30;99.90;;;;;;5072767;28;20051;-61
2022/11/04 04:57:47;;;;;;;2.75;1.00;;;10.20;99.90;;;;;;5086673;28;20051;-61
2022/11/04 05:00:18;;;;;;;5.68;0.98;;;10.30;99.90;;;;;;5088001;28;20509;-61
2022/11/04 05:02:45;;;;;;;2.67;1.20;;;10.30;99.90;;;;;;5088761;28;20051;-62
2022/11/04 05:05:15;;;;;;;5.05;1.00;;;10.20;99.90;;;;;;5090323;28;20047;-60
2022/11/04 05:07:41;;;;;;;3.38;0.90;;;10.20;99.90;;;;;;5078395;28;20050;-61
2022/11/04 05:10:09;;;;;;;3.15;1.00;;;10.20;99.90;;;;;;5090916;28;20067;-61
2022/11/04 05:15:20;;;;;;;4.68;0.90;;;10.20;99.90;;;;;;5091835;28;20046;-61
2022/11/04 05:17:46;;;;;;;3.17;0.93;;;10.10;99.90;;;;;;5087550;28;20039;-61
2022/11/04 05:20:12;;;;;;;3.35;1.20;;;10.10;99.90;;;;;;5069480;28;20047;-61
2022/11/04 05:22:39;;;;;;;4.07;0.90;;;10.10;99.90;;;;;;5092170;28;20074;-61
2022/11/04 05:25:05;;;;;;;2.38;1.25;;;10.10;99.90;;;;;;5063743;28;20134;-60
2022/11/04 05:27:31;;;;;;;5.32;1.00;;;10.10;99.90;;;;;;5088464;28;20502;-59
2022/11/04 05:29:56;;;;;;;2.25;0.90;;;10.10;99.90;;;;;;5078100;28;20055;-61
2022/11/04 05:32:22;;;;;;;2.75;1.13;;;10.10;99.90;;;;;;5086638;28;20048;-62
2022/11/04 05:34:48;;;;;;;5.53;1.17;;;10.10;99.90;;;;;;5086514;28;20659;-61
2022/11/04 05:37:14;;;;;;;2.90;0.80;;;10.10;99.90;;;;;;5079494;28;20386;-62
2022/11/04 05:39:39;;;;;;;3.72;0.82;;;10.10;99.90;;;;;;5085578;28;20051;-61
2022/11/04 05:42:05;;;;;;;2.75;0.98;;;10.00;99.90;;;;;;5090181;28;20059;-61
2022/11/04 05:44:31;;;;;;;4.05;0.80;;;10.00;99.90;;;;;;5085922;28;20405;-60
2022/11/04 05:46:57;;;;;;;2.72;0.82;;;10.00;99.90;;;;;;5088638;28;20051;-60
2022/11/04 05:49:22;;;;;;;2.88;0.90;;;10.00;99.90;;;;;;5068367;28;20105;-59
2022/11/04 05:51:48;;;;;;;1.77;0.90;;;9.90;99.90;;;;;;5070180;28;20371;-61
2022/11/04 05:54:14;;;;;;;3.25;0.90;;;10.00;99.90;;;;;;5090037;28;20050;-60
2022/11/04 05:56:40;;;;;;;2.35;0.90;;;9.90;99.90;;;;;;5091691;28;20047;-61
2022/11/04 05:59:05;;;;;;;3.55;0.93;;;9.80;99.90;;;;;;5088880;28;20047;-61
2022/11/04 06:01:34;;;;;;;3.90;0.88;;;9.80;99.90;;;;;;5084609;28;20090;-61
2022/11/04 06:04:01;;;;;;;6.43;1.05;;;9.80;99.90;;;;;;5085727;28;20027;-61
2022/11/04 06:06:33;;;;;;;6.90;1.08;;;9.80;99.90;;;;;;5070140;28;21014;-61
2022/11/04 06:08:59;;;;;;;4.60;0.90;;;9.80;99.90;;;;;;5085589;28;20048;-61
2022/11/04 06:11:27;;;;;;;4.32;0.80;;;9.80;99.90;;;;;;5089146;28;20035;-60
2022/11/04 06:13:54;;;;;;;4.32;1.10;;;9.80;99.90;;;;;;5071238;28;20043;-61
2022/11/04 06:16:20;;;;;;;9.27;0.98;;;9.80;99.90;;;;;;5082078;28;20096;-61
2022/11/04 06:18:46;;;;;;;2.58;0.75;;;9.80;99.90;;;;;;5078482;28;20043;-61
2022/11/04 06:21:12;;;;;;;2.55;0.85;;;9.70;99.90;;;;;;5065403;28;20105;-61
2022/11/04 06:23:39;;;;;;;1.95;0.85;;;9.70;99.90;;;;;;5085555;28;20039;-60
2022/11/04 06:26:05;;;;;;;1.17;0.82;;;9.70;99.90;;;;;;5089866;28;20086;-60
2022/11/04 06:28:32;;;;;;;3.65;1.00;;;9.70;99.90;;;;;;5083607;28;20143;-61
2022/11/04 06:30:59;;;;;;;4.18;0.98;;;9.70;99.90;;;;;;5084621;28;20031;-61
2022/11/04 06:33:25;;;;;;;5.25;0.88;;;9.70;99.90;;;;;;5088806;28;20185;-61
2022/11/04 06:35:51;;;;;;;4.38;1.08;;;9.60;99.90;;;;;;5088853;28;20036;-61
2022/11/04 06:38:17;;;;;;;3.45;0.90;;;9.60;99.90;;;;;;5069519;28;20048;-61
2022/11/04 06:40:43;;;;;;;5.07;1.10;;;9.50;99.90;;;;;;5088407;28;20765;-61
2022/11/04 06:43:09;;;;;;;2.00;0.93;;;9.50;99.90;;;;;;5084431;28;20163;-60
2022/11/04 06:45:34;;;;;;;3.33;1.10;;;9.50;99.90;;;;;;5084535;28;20465;-60
2022/11/04 06:48:00;;;;;;;3.35;1.17;;;9.40;99.90;;;;;;5090670;28;20051;-61
2022/11/04 06:50:26;;;;;;;2.95;0.98;;;9.40;99.90;;;;;;5067177;28;20051;-61
2022/11/04 06:52:51;;;;;;;6.10;1.30;;;9.40;99.90;;;;;;5064359;28;20134;-61
2022/11/04 06:55:17;;;;;;;2.65;0.90;;;9.30;99.90;;;;;;5069826;28;20071;-61
2022/11/04 06:57:43;;;;;;;6.35;1.00;;;9.30;99.90;;;;;;5071967;28;20091;-61
2022/11/04 07:00:10;;;;;;;3.15;1.23;;;9.30;99.90;;;;;;5064378;28;20124;-61
2022/11/04 07:02:37;;;;;;;5.15;1.20;;;9.30;99.90;;;;;;5064567;28;20062;-61
2022/11/04 07:05:03;;;;;;;3.42;1.30;;;9.20;99.90;;;;;;5065811;28;20101;-61
2022/11/04 07:07:29;;;;;;;3.65;1.10;;;9.20;99.90;;;;;;5063926;28;20082;-60
2022/11/04 07:09:56;;;;;;;3.40;1.00;;;9.20;99.90;;;;;;5044521;28;20552;-60
2022/11/04 07:12:23;;;;;;;3.67;1.05;;;9.20;99.90;;;;;;5065020;28;20606;-61
2022/11/04 07:14:50;;;;;;;8.80;1.30;;;9.20;99.90;;;;;;5071343;28;20048;-49
2022/11/04 07:17:16;;;;;;;8.20;1.67;;;9.20;99.90;;;;;;5075687;28;20123;-52
2022/11/04 07:19:42;;;;;;;17.98;2.17;;;9.20;99.90;;;;;;5074001;28;20402;-50
2022/11/04 07:22:08;;;;;;;14.88;1.70;;;9.20;99.90;;;;;;5073897;28;20046;-50
2022/11/04 07:24:34;;;;;;;4.68;1.63;;;9.10;99.90;;;;;;5076371;28;20665;-52
2022/11/04 07:27:00;;;;;;;6.35;1.45;;;9.10;99.90;;;;;;5074227;28;20395;-48
2022/11/04 07:29:26;;;;;;;5.32;1.40;;;9.20;99.90;;;;;;5074262;28;20071;-48
2022/11/04 07:31:53;;;;;;;6.38;1.40;;;9.20;99.90;;;;;;5075311;28;20040;-51
2022/11/04 07:34:19;;;;;;;6.55;1.67;;;9.10;99.90;;;;;;5071899;28;20044;-48
2022/11/04 07:36:45;;;;;;;5.72;0.95;;;9.20;99.90;;;;;;5069501;28;20664;-48
2022/11/04 07:39:11;;;;;;;6.32;1.38;;;9.20;99.90;;;;;;5073210;28;20082;-51
2022/11/04 07:41:37;;;;;;;7.40;1.63;;;9.20;99.90;;;;;;5074274;28;20051;-52
2022/11/04 07:44:04;;;;;;;6.45;1.50;;;9.20;99.90;;;;;;5072313;28;20040;-48
2022/11/04 07:46:31;;;;;;;7.10;1.60;;;9.30;99.90;;;;;;5074561;28;20055;-49
2022/11/04 07:48:57;;;;;;;7.78;1.90;;;9.30;99.90;;;;;;5072351;28;20084;-48
2022/11/04 07:51:24;;;;;;;9.05;1.42;;;9.30;99.90;;;;;;5072783;28;20074;-48
2022/11/04 07:53:49;;;;;;;5.40;1.60;;;9.30;99.90;;;;;;5095230;28;20048;-51
2022/11/04 07:56:17;;;;;;;9.10;1.40;;;9.30;99.90;;;;;;5084928;28;20070;-51
2022/11/04 07:58:44;;;;;;;7.50;1.67;;;9.40;99.90;;;;;;5084341;28;20051;-48
2022/11/04 08:01:15;;;;;;;8.73;1.70;;;9.40;99.90;;;;;;5093111;28;20078;-52
2022/11/04 08:03:41;;;;;;;5.63;1.83;;;9.50;99.90;;;;;;5093497;28;20051;-50
2022/11/04 08:06:09;;;;;;;7.47;1.52;;;9.50;99.90;;;;;;5093203;28;20066;-51
2022/11/04 08:08:36;;;;;;;8.35;1.33;;;9.60;99.90;;;;;;5093378;28;20335;-50
2022/11/04 08:11:08;;;;;;;4.30;1.50;;;9.60;99.90;;;;;;5092472;28;20173;-49
2022/11/04 08:13:36;;;;;;;5.80;1.38;;;9.60;99.90;;;;;;5091063;28;20039;-48
2022/11/04 08:16:05;;;;;;;5.95;1.30;;;9.70;99.90;;;;;;5092054;28;20070;-50
2022/11/04 08:18:32;;;;;;;4.28;0.90;;;9.70;99.90;;;;;;5086588;28;20349;-48
2022/11/04 08:20:59;;;;;;;3.88;0.98;;;9.80;99.90;;;;;;5087006;28;20048;-49
2022/11/04 08:23:25;;;;;;;12.98;2.38;;;9.80;99.90;;;;;;5092550;28;20044;-49
2022/11/04 08:25:51;;;;;;;6.13;1.45;;;9.90;99.90;;;;;;5092934;28;20043;-51
2022/11/04 08:28:17;;;;;;;7.88;1.33;;;10.00;99.90;;;;;;5090214;28;20047;-49
2022/11/04 08:30:52;;;;;;;6.90;1.75;;;10.00;99.90;;;;;;5090584;28;20474;-49
2022/11/04 08:33:19;;;;;;;5.97;1.58;;;10.10;99.90;;;;;;5091258;28;20085;-48
2022/11/04 08:35:44;;;;;;;6.07;1.30;;;10.10;99.90;;;;;;5091113;28;20430;-51
2022/11/04 08:38:10;;;;;;;4.55;1.50;;;10.30;99.90;;;;;;5088708;28;20047;-49
2022/11/04 08:40:36;;;;;;;7.05;1.65;;;10.30;99.90;;;;;;5088506;28;20048;-50
2022/11/04 08:43:02;;;;;;;4.75;1.33;;;10.40;99.90;;;;;;5090518;28;20071;-53
2022/11/04 08:45:27;;;;;;;3.65;1.38;;;10.40;99.90;;;;;;5090161;28;20058;-50
2022/11/04 08:47:53;;;;;;;5.35;1.60;;;10.50;99.90;;;;;;5092052;28;20082;-49
2022/11/04 08:50:20;;;;;;;4.13;1.40;;;10.60;99.90;;;;;;5087226;28;20477;-49
2022/11/04 08:52:47;;;;;;;5.70;1.30;;;10.70;99.90;;;;;;5070985;28;20535;-49
2022/11/04 08:55:12;;;;;;;3.53;1.08;;;10.70;99.90;;;;;;5090093;28;20048;-52
2022/11/04 08:57:38;;;;;;;3.05;1.13;;;10.80;99.90;;;;;;5090447;28;20039;-50
2022/11/04 09:00:05;;;;;;;4.07;1.33;;;10.90;99.90;;;;;;5089631;28;20051;-52
2022/11/04 09:02:31;;;;;;;3.08;1.27;;;11.00;99.90;;;;;;5074527;28;20050;-51
2022/11/04 09:04:56;;;;;;;5.32;1.30;;;11.00;99.90;;;;;;5091901;28;20477;-51
2022/11/04 09:07:22;;;;;;;3.72;1.30;;;11.10;99.90;;;;;;5091316;28;20185;-49
2022/11/04 09:09:48;;;;;;;4.22;1.30;;;11.20;99.90;;;;;;5086776;28;20052;-52
2022/11/04 09:12:14;;;;;;;5.63;1.17;;;11.30;99.90;;;;;;5092103;28;20044;-49
2022/11/04 09:14:40;;;;;;;8.25;1.20;;;11.40;99.90;;;;;;5089460;28;20119;-51
2022/11/04 09:17:05;;;;;;;4.35;1.17;;;11.40;99.90;;;;;;5089506;28;20071;-49
2022/11/04 09:19:31;;;;;;;2.22;1.00;;;11.50;99.90;;;;;;5090607;28;20043;-52
2022/11/04 09:21:57;;;;;;;8.43;1.45;;;11.60;99.90;;;;;;5091876;28;20063;-52
2022/11/04 09:24:23;;;;;;;5.78;1.13;;;11.70;99.90;;;;;;5070540;28;20072;-50
2022/11/04 09:26:48;;;;;;;6.20;1.05;;;11.70;99.90;;;;;;5087603;28;20039;-51
2022/11/04 09:29:15;;;;;;;6.20;1.00;;;11.80;99.90;;;;;;5091334;28;20051;-50
2022/11/04 09:31:42;;;;;;;6.32;1.10;;;11.90;99.90;;;;;;5089551;28;20040;-50
2022/11/04 09:34:07;;;;;;;4.47;1.20;;;11.90;99.90;;;;;;5089163;28;20040;-50
2022/11/04 09:36:33;;;;;;;4.15;1.20;;;12.00;99.90;;;;;;5089865;28;20060;-51
2022/11/04 09:38:59;;;;;;;6.03;1.35;;;12.10;99.90;;;;;;5088285;28;20153;-52
2022/11/04 09:41:52;;;;;;;5.53;1.27;;;12.10;99.90;;;;;;5088260;28;20056;-50
2022/11/04 09:44:50;;;;;;;3.33;1.08;;;12.20;99.90;;;;;;5086638;28;20690;-53
2022/11/04 09:47:17;;;;;;;8.35;1.10;;;12.30;99.90;;;;;;5068004;28;20040;-51
2022/11/04 09:49:46;;;;;;;8.60;1.20;;;12.20;99.90;;;;;;5075441;28;20083;-50
2022/11/04 09:52:17;;;;;;;5.32;1.30;;;12.30;99.90;;;;;;5088246;28;20048;-51
2022/11/04 09:54:51;;;;;;;7.53;1.50;;;12.50;99.90;;;;;;5091040;28;20395;-50
2022/11/04 09:57:18;;;;;;;4.43;1.30;;;12.70;99.90;;;;;;5089676;28;20137;-53
2022/11/04 09:59:45;;;;;;;6.50;1.17;;;12.90;99.90;;;;;;5090618;28;21108;-51
2022/11/04 10:02:37;;;;;;;6.82;1.35;;;13.00;99.90;;;;;;5081065;28;20117;-50
2022/11/04 10:05:22;;;;;;;5.90;1.10;;;13.20;99.90;;;;;;5074224;28;20059;-53
2022/11/04 10:08:29;;;;;;;3.90;1.05;;;13.40;99.90;;;;;;5090712;28;20040;-50
2022/11/04 10:10:55;;;;;;;4.68;1.00;;;13.60;99.90;;;;;;5090054;28;20418;-52
2022/11/04 10:13:52;;;;;;;6.57;1.20;;;13.70;99.90;;;;;;5089162;28;20044;-51
2022/11/04 10:16:41;;;;;;;4.57;1.33;;;13.90;99.90;;;;;;5092569;28;20455;-53
2022/11/04 10:19:21;;;;;;;3.72;1.00;;;13.90;99.90;;;;;;5090417;28;20068;-51
2022/11/04 10:22:14;;;;;;;6.30;1.40;;;13.80;99.90;;;;;;5088098;28;20130;-52
2022/11/04 10:24:46;;;;;;;8.68;1.17;;;13.90;99.90;;;;;;5088897;28;20133;-53
2022/11/04 10:27:26;;;;;;;4.05;1.20;;;14.00;99.90;;;;;;5092842;28;20394;-52
2022/11/04 10:29:57;;;;;;;6.93;1.27;;;14.10;99.90;;;;;;5089103;28;20055;-49
2022/11/04 10:32:29;;;;;;;5.97;1.17;;;14.10;99.90;;;;;;5090434;28;20359;-50
2022/11/04 10:35:01;;;;;;;7.28;1.75;;;14.10;99.90;;;;;;5090190;28;20409;-50
2022/11/04 10:37:27;;;;;;;4.05;1.10;;;14.10;99.90;;;;;;5088849;28;20046;-52
2022/11/04 10:40:05;;;;;;;8.93;1.48;;;14.30;99.90;;;;;;5090898;28;20051;-52
2022/11/04 10:42:31;;;;;;;8.00;1.40;;;14.40;99.90;;;;;;5088183;28;20509;-50
2022/11/04 10:44:57;;;;;;;6.03;1.33;;;14.40;99.90;;;;;;5074909;28;20044;-53
2022/11/04 10:47:41;;;;;;;5.18;1.27;;;14.50;99.90;;;;;;5086950;28;20048;-51
2022/11/04 10:50:24;;;;;;;9.23;1.23;;;14.60;99.90;;;;;;5091145;28;20044;-53
2022/11/04 10:52:53;;;;;;;;;;;14.60;99.90;;;;;;5094989;28;20144;-49
2022/11/04 10:55:57;;;;;;;6.75;1.65;;;14.60;99.90;;;;;;5090633;28;19926;-53
2022/11/04 10:58:27;;;;;;;5.63;1.33;;;14.50;99.90;;;;;;5094189;28;20047;-50
2022/11/04 11:00:56;;;;;;;4.93;1.23;;;14.50;99.90;;;;;;5092997;28;20047;-51
2022/11/04 11:03:31;;;;;;;5.88;1.27;;;14.60;99.90;;;;;;5091050;28;20105;-49
2022/11/04 11:06:25;;;;;;;9.32;1.20;;;14.70;99.90;;;;;;5089240;28;20786;-50
2022/11/04 11:08:53;;;;;;;4.53;1.15;;;14.70;99.90;;;;;;5090596;28;20062;-50
2022/11/04 11:11:46;;;;;;;7.70;1.10;;;14.70;99.90;;;;;;5093450;28;20500;-49
2022/11/04 11:14:32;;;;;;;6.65;1.23;;;14.70;99.90;;;;;;5094652;28;20040;-51
2022/11/04 11:17:13;;;;;;;8.30;1.63;;;14.60;99.90;;;;;;5093693;28;20050;-49
2022/11/04 11:20:04;;;;;;;7.43;1.38;;;14.60;99.90;;;;;;5093762;28;20071;-49
2022/11/04 11:22:35;;;;;;;5.95;1.33;;;14.50;99.90;;;;;;5092304;28;20040;-50
2022/11/04 11:25:21;;;;;;;5.22;1.33;;;14.50;99.90;;;;;;5091916;28;20040;-51
2022/11/04 11:27:56;;;;;;;5.82;1.48;;;14.50;99.90;;;;;;5093167;28;20150;-53
2022/11/04 11:30:25;;;;;;;6.13;1.77;;;14.40;99.90;;;;;;5093481;28;20136;-50
2022/11/04 11:33:15;;;;;;;6.03;1.27;;;14.20;99.90;;;;;;5092905;28;20047;-50
2022/11/04 11:35:49;;;;;;;6.32;1.23;;;14.10;99.90;;;;;;5075364;28;20055;-52
2022/11/04 11:38:19;;;;;;;4.82;1.05;;;13.90;99.90;;;;;;5090553;28;20484;-53
2022/11/04 11:40:46;;;;;;;4.07;0.90;;;13.70;99.90;;;;;;5083193;28;20039;-50
2022/11/04 11:43:23;;;;;;;6.00;1.30;;;13.50;99.90;;;;;;5093410;28;20047;-50
2022/11/04 11:45:50;;;;;;;8.05;1.70;;;13.30;99.90;;;;;;5091884;28;20086;-51
2022/11/04 11:48:32;;;;;;;5.90;1.38;;;13.20;99.90;;;;;;5092276;28;20085;-50
2022/11/04 11:50:59;;;;;;;4.60;1.10;;;13.00;99.90;;;;;;5092079;28;20055;-50
2022/11/04 11:53:28;;;;;;;5.70;1.50;;;12.90;99.90;;;;;;5090086;28;20044;-50
2022/11/04 11:56:27;;;;;;;5.03;1.00;;;12.70;99.90;;;;;;5092887;28;20209;-50
2022/11/04 11:59:06;;;;;;;5.65;1.17;;;12.60;99.90;;;;;;5078360;28;20056;-50
2022/11/04 12:02:07;;;;;;;7.15;1.42;;;12.50;99.90;;;;;;5087906;28;20056;-48
2022/11/04 12:04:34;;;;;;;5.13;1.13;;;12.50;99.90;;;;;;5084622;28;20044;-50
2022/11/04 12:07:03;;;;;;;3.67;1.13;;;12.50;99.90;;;;;;5089683;28;20062;-49
2022/11/04 12:10:26;;;;;;;3.60;1.13;;;12.40;99.90;;;;;;5096078;28;20118;-50
2022/11/04 12:13:26;;;;;;;2.28;1.00;;;12.40;99.90;;;;;;5000753;28;20052;-50
2022/11/04 12:16:23;;;;;;;4.68;1.05;;;12.30;99.90;;;;;;4995951;28;20064;-49
2022/11/04 12:19:04;;;;;;;5.85;1.42;;;12.20;99.90;;;;;;5085333;28;20116;-50
2022/11/04 12:21:46;;;;;;;2.90;0.88;;;12.10;99.90;;;;;;5090491;28;20516;-51
2022/11/04 12:24:44;;;;;;;4.80;0.95;;;12.10;99.90;;;;;;5095536;28;20097;-49
2022/11/04 12:27:46;;;;;;;5.97;1.52;;;12.10;99.90;;;;;;5089917;28;20070;-52
2022/11/04 12:30:18;;;;;;;3.38;0.90;;;12.10;99.90;;;;;;5090254;28;20070;-52
2022/11/04 12:32:55;;;;;;;2.53;1.13;;;12.20;99.90;;;;;;5091102;28;20051;-49
2022/11/04 12:35:50;;;;;;;3.88;1.10;;;12.20;99.90;;;;;;5092148;28;20146;-50
2022/11/04 12:38:24;;;;;;;5.10;1.30;;;12.30;99.90;;;;;;5075331;28;20404;-53
2022/11/04 12:41:05;;;;;;;6.25;1.17;;;12.40;99.90;;;;;;5093078;28;20478;-49
2022/11/04 12:43:49;;;;;;;4.50;0.90;;;12.40;99.90;;;;;;5091148;28;20059;-49
2022/11/04 12:46:34;;;;;;;6.05;1.02;;;12.50;99.90;;;;;;5091606;28;20056;-53
2022/11/04 12:49:10;;;;;;;6.07;1.10;;;12.60;99.90;;;;;;5092238;28;20058;-53
2022/11/04 12:51:45;;;;;;;5.38;1.10;;;12.80;99.90;;;;;;5089034;28;20113;-49
2022/11/04 12:54:32;;;;;;;5.32;1.13;;;13.00;99.90;;;;;;5093404;28;20040;-53
2022/11/04 12:57:33;;;;;;;4.10;1.10;;;13.30;99.90;;;;;;5091171;28;20043;-51
2022/11/04 13:00:19;;;;;;;6.55;1.17;;;13.60;99.90;;;;;;5068090;28;20104;-50
2022/11/04 13:02:53;;;;;;;4.07;1.20;;;14.00;99.90;;;;;;5096289;28;20059;-52
2022/11/04 13:05:27;;;;;;;6.53;1.20;;;14.20;99.90;;;;;;5094573;28;20499;-51
2022/11/04 13:08:08;;;;;;;5.20;1.55;;;14.50;99.90;;;;;;5099241;28;20036;-53
2022/11/04 13:10:56;;;;;;;8.73;1.48;;;14.70;99.90;;;;;;5098416;28;20055;-51
2022/11/04 13:13:31;;;;;;;5.28;1.05;;;14.90;99.90;;;;;;5080873;28;20048;-49
2022/11/04 13:16:01;;;;;;;8.32;1.38;;;15.00;99.90;;;;;;5093748;28;20055;-50
2022/11/04 13:18:31;;;;;;;7.95;1.55;;;15.00;99.90;;;;;;5094366;28;20480;-49
2022/11/04 13:21:15;;;;;;;5.95;1.30;;;15.00;99.90;;;;;;5096509;28;20043;-53
2022/11/04 13:23:53;;;;;;;9.32;1.58;;;15.00;99.90;;;;;;5097791;28;20406;-50
2022/11/04 13:26:19;;;;;;;8.10;1.50;;;14.90;99.90;;;;;;5099222;28;20193;-50
2022/11/04 13:28:58;;;;;;;7.35;1.40;;;14.80;99.90;;;;;;5100457;28;20111;-49
2022/11/04 13:31:36;;;;;;;9.07;1.73;;;14.60;99.90;;;;;;5097182;28;20111;-51
2022/11/04 13:34:31;;;;;;;5.57;1.25;;;14.50;99.90;;;;;;5094485;28;20489;-52
2022/11/04 13:37:12;;;;;;;5.30;1.80;;;14.50;99.90;;;;;;5097602;28;20036;-49
2022/11/04 13:39:47;;;;;;;7.22;1.48;;;14.30;99.90;;;;;;5097099;28;20118;-50
2022/11/04 13:42:40;;;;;;;5.53;1.23;;;14.20;99.90;;;;;;5095679;28;20126;-51
2022/11/04 13:45:17;;;;;;;;;;;14.10;99.90;;;;;;5092835;28;20152;-60
2022/11/04 13:47:52;;;;;;;8.73;1.63;;;14.00;99.90;;;;;;5093162;28;20278;-59